createdAt,value
2023-05-22T00:02:34.178Z,101022.44
2023-05-22T00:07:27.580Z,101016.09
2023-05-22T00:12:20.924Z,101015.74
2023-05-22T00:17:15.330Z,101011.61
2023-05-22T00:22:08.348Z,101012.81
2023-05-22T00:27:01.162Z,101007.81
2023-05-22T00:31:54.080Z,101008.55
2023-05-22T00:36:47.286Z,101006.34
2023-05-22T00:41:40.222Z,101001.89
2023-05-22T00:46:34.477Z,101002.70
2023-05-22T00:51:27.536Z,101003.05
2023-05-22T00:56:21.973Z,101007.36
2023-05-22T01:01:16.227Z,101006.35
2023-05-22T01:06:10.059Z,101008.10
2023-05-22T01:11:13.920Z,101010.68
2023-05-22T01:16:15.956Z,101009.20
2023-05-22T01:21:23.389Z,101012.13
2023-05-22T01:26:35.092Z,101012.89
2023-05-22T01:31:31.433Z,101009.98
2023-05-22T01:36:28.727Z,101009.73
2023-05-22T01:41:21.830Z,101009.56
2023-05-22T01:46:15.136Z,101010.68
2023-05-22T01:51:25.052Z,101011.18
2023-05-22T01:56:31.052Z,101013.80
2023-05-22T02:01:30.557Z,101016.17
2023-05-22T02:06:24.406Z,101022.58
2023-05-22T02:11:18.728Z,101020.98
2023-05-22T02:16:12.845Z,101012.64
2023-05-22T02:21:08.725Z,101015.97
2023-05-22T02:26:04.812Z,101015.51
2023-05-22T02:30:58.013Z,101010.52
2023-05-22T02:35:50.913Z,101014.37
2023-05-22T02:40:43.717Z,101010.95
2023-05-22T02:45:36.553Z,101008.79
2023-05-22T02:50:29.431Z,101008.52
2023-05-22T02:55:22.898Z,101006.91
2023-05-22T03:00:17.050Z,101003.52
2023-05-22T03:05:10.932Z,100996.17
2023-05-22T03:10:03.889Z,100994.93
2023-05-22T03:14:56.728Z,100990.30
2023-05-22T03:19:49.690Z,100987.72
2023-05-22T03:24:42.731Z,100986.33
2023-05-22T03:29:37.562Z,100983.45
2023-05-22T03:34:32.463Z,100983.09
2023-05-22T03:39:25.938Z,100985.30
2023-05-22T03:44:28.142Z,100988.27
2023-05-22T03:49:21.503Z,100988.59
2023-05-22T03:54:14.458Z,100988.60
2023-05-22T03:59:07.973Z,100990.60
2023-05-22T04:04:01.055Z,100988.66
2023-05-22T04:08:53.944Z,100992.98
2023-05-22T04:13:46.859Z,100993.25
2023-05-22T04:18:39.726Z,100992.63
2023-05-22T04:23:33.024Z,100987.67
2023-05-22T04:28:26.878Z,100980.81
2023-05-22T04:33:19.769Z,100979.13
2023-05-22T04:38:13.264Z,100973.13
2023-05-22T04:43:06.294Z,100963.52
2023-05-22T04:48:02.932Z,100965.38
2023-05-22T04:53:04.553Z,100960.62
2023-05-22T04:57:57.580Z,100960.38
2023-05-22T05:02:51.028Z,100959.29
2023-05-22T05:07:44.501Z,100960.08
2023-05-22T05:12:37.871Z,100961.83
2023-05-22T05:17:31.415Z,100960.52
2023-05-22T05:22:24.464Z,100963.47
2023-05-22T05:27:17.950Z,100965.36
2023-05-22T05:32:12.733Z,100966.92
2023-05-22T05:37:17.536Z,100965.91
2023-05-22T05:42:11.385Z,100961.66
2023-05-22T05:47:05.628Z,100965.23
2023-05-22T05:51:58.797Z,100962.63
2023-05-22T05:56:52.433Z,100955.45
2023-05-22T06:01:47.303Z,100960.79
2023-05-22T06:06:45.475Z,100963.45
2023-05-22T06:11:41.475Z,100956.23
2023-05-22T06:16:34.663Z,100952.88
2023-05-22T06:21:28.039Z,100948.63
2023-05-22T06:26:22.136Z,100942.77
2023-05-22T06:31:15.900Z,100935.86
2023-05-22T06:36:11.725Z,100933.00
2023-05-22T06:41:05.637Z,100930.48
2023-05-22T06:45:58.705Z,100929.91
2023-05-22T06:51:01.747Z,100935.09
2023-05-22T06:55:55.122Z,100925.84
2023-05-22T07:00:59.166Z,100927.58
2023-05-22T07:06:00.966Z,100927.44
2023-05-22T07:10:54.090Z,100925.85
2023-05-22T07:15:50.758Z,100920.45
2023-05-22T07:20:44.478Z,100915.77
2023-05-22T07:25:44.257Z,100915.65
2023-05-22T07:30:39.661Z,100911.96
2023-05-22T07:35:32.844Z,100906.86
2023-05-22T07:40:26.514Z,100903.34
2023-05-22T07:45:20.139Z,100897.73
2023-05-22T07:50:13.538Z,100898.35
2023-05-22T07:55:09.412Z,100890.66
2023-05-22T08:00:19.090Z,100888.30
2023-05-22T08:05:14.605Z,100891.09
2023-05-22T08:10:27.947Z,100886.12
2023-05-22T08:15:22.873Z,100886.34
2023-05-22T08:20:15.810Z,100877.57
2023-05-22T08:25:11.081Z,100877.04
2023-05-22T08:30:05.325Z,100874.24
2023-05-22T08:34:59.537Z,100876.05
2023-05-22T08:39:52.521Z,100878.42
2023-05-22T08:44:45.827Z,100876.30
2023-05-22T08:49:40.845Z,100882.27
2023-05-22T08:54:37.745Z,100875.54
2023-05-22T08:59:31.759Z,100876.52
2023-05-22T09:04:25.849Z,100864.77
2023-05-22T09:09:18.800Z,100869.08
2023-05-22T09:14:11.904Z,100858.03
2023-05-22T09:19:06.550Z,100858.91
2023-05-22T09:24:02.728Z,100860.71
2023-05-22T09:28:57.319Z,100857.39
2023-05-22T09:33:50.236Z,100859.94
2023-05-22T09:38:43.125Z,100852.31
2023-05-22T09:43:35.954Z,100850.77
2023-05-22T09:48:28.884Z,100843.45
2023-05-22T09:53:29.540Z,100842.42
2023-05-22T09:58:27.196Z,100843.52
2023-05-22T10:03:24.963Z,100841.31
2023-05-22T10:08:29.754Z,100836.70
2023-05-22T10:13:23.366Z,100834.00
2023-05-22T10:18:20.061Z,100832.73
2023-05-22T10:23:13.589Z,100828.43
2023-05-22T10:28:08.273Z,100827.52
2023-05-22T10:33:11.790Z,100827.29
2023-05-22T10:38:27.004Z,100829.89
2023-05-22T10:43:22.418Z,100824.65
2023-05-22T10:48:16.198Z,100825.85
2023-05-22T10:53:28.349Z,100821.71
2023-05-22T10:58:28.912Z,100824.92
2023-05-22T11:03:22.741Z,100821.08
2023-05-22T11:08:27.898Z,100821.02
2023-05-22T11:13:20.800Z,100811.13
2023-05-22T11:18:14.776Z,100806.80
2023-05-22T11:23:09.157Z,100802.04
2023-05-22T11:28:05.636Z,100797.45
2023-05-22T11:33:01.591Z,100788.95
2023-05-22T11:37:55.851Z,100789.96
2023-05-22T11:42:49.507Z,100780.23
2023-05-22T11:47:42.830Z,100778.48
2023-05-22T11:52:37.400Z,100769.61
2023-05-22T11:57:31.588Z,100764.24
2023-05-22T12:02:24.527Z,100766.92
2023-05-22T12:07:17.523Z,100767.77
2023-05-22T12:12:12.042Z,100766.77
2023-05-22T12:17:06.502Z,100767.55
2023-05-22T12:22:00.584Z,100757.23
2023-05-22T12:26:54.564Z,100758.73
2023-05-22T12:31:47.616Z,100751.89
2023-05-22T12:36:42.568Z,100743.75
2023-05-22T12:41:35.535Z,100739.70
2023-05-22T12:46:28.752Z,100735.45
2023-05-22T12:51:21.649Z,100735.89
2023-05-22T12:56:14.484Z,100732.12
2023-05-22T13:01:07.467Z,100731.66
2023-05-22T13:06:00.369Z,100724.69
2023-05-22T13:10:53.225Z,100718.58
2023-05-22T13:15:47.219Z,100721.31
2023-05-22T13:20:40.110Z,100722.73
2023-05-22T13:25:32.937Z,100719.95
2023-05-22T13:30:26.114Z,100712.27
2023-05-22T13:35:19.479Z,100707.79
2023-05-22T13:40:12.736Z,100708.64
2023-05-22T13:45:06.836Z,100708.98
2023-05-22T13:49:59.715Z,100709.10
2023-05-22T13:54:52.671Z,100705.80
2023-05-22T13:59:45.607Z,100700.27
2023-05-22T14:04:38.968Z,100696.79
2023-05-22T14:09:40.874Z,100689.31
2023-05-22T14:14:36.869Z,100686.78
2023-05-22T14:19:30.053Z,100684.21
2023-05-22T14:24:23.262Z,100685.58
2023-05-22T14:29:28.180Z,100681.84
2023-05-22T14:34:23.735Z,100676.89
2023-05-22T14:39:16.741Z,100669.74
2023-05-22T14:44:10.592Z,100666.81
2023-05-22T14:49:03.502Z,100663.59
2023-05-22T14:53:56.676Z,100662.92
2023-05-22T14:58:49.786Z,100664.35
2023-05-22T15:03:43.514Z,100661.96
2023-05-22T15:09:12.581Z,100658.52
2023-05-22T15:14:13.391Z,100655.86
2023-05-22T15:19:06.779Z,100653.09
2023-05-22T15:24:02.739Z,100654.11
2023-05-22T15:29:01.369Z,100645.67
2023-05-22T15:34:55.362Z,100642.96
2023-05-22T15:47:00.696Z,100635.64
2023-05-22T15:52:37.280Z,100631.01
2023-05-22T16:04:16.368Z,100623.02
2023-05-22T16:10:07.722Z,100618.86
2023-05-22T16:16:13.096Z,100615.84
2023-05-22T16:27:23.774Z,100610.25
2023-05-22T16:33:26.417Z,100611.20
2023-05-22T16:39:00.380Z,100605.66
2023-05-22T16:50:32.839Z,100604.75
2023-05-22T16:56:12.652Z,100607.30
2023-05-22T17:02:01.507Z,100605.83
2023-05-22T17:07:58.350Z,100603.95
2023-05-22T17:13:53.486Z,100608.39
2023-05-22T17:19:03.671Z,100609.59
2023-05-22T17:24:17.706Z,100614.95
2023-05-22T17:30:30.468Z,100616.80
2023-05-22T17:42:29.282Z,100627.16
2023-05-22T17:47:32.948Z,100625.20
2023-05-22T17:52:26.098Z,100621.14
2023-05-22T17:57:19.139Z,100617.32
2023-05-22T18:02:12.218Z,100612.93
2023-05-22T18:07:05.169Z,100610.27
2023-05-22T18:12:02.204Z,100610.58
2023-05-22T18:16:55.135Z,100609.45
2023-05-22T18:21:48.089Z,100609.90
2023-05-22T18:26:41.131Z,100605.13
2023-05-22T18:31:35.127Z,100607.16
2023-05-22T18:36:28.045Z,100612.16
2023-05-22T18:41:20.930Z,100613.30
2023-05-22T18:46:13.813Z,100615.20
2023-05-22T18:51:06.812Z,100616.04
2023-05-22T18:55:59.728Z,100621.40
2023-05-22T19:00:55.564Z,100624.61
2023-05-22T19:05:49.242Z,100625.88
2023-05-22T19:10:43.005Z,100628.61
2023-05-22T19:15:37.848Z,100628.05
2023-05-22T19:20:30.847Z,100629.77
2023-05-22T19:25:23.826Z,100634.48
2023-05-22T19:30:17.041Z,100640.88
2023-05-22T19:35:11.083Z,100639.06
2023-05-22T19:40:04.444Z,100629.17
2023-05-22T19:44:57.420Z,100633.42
2023-05-22T19:49:50.471Z,100634.19
2023-05-22T19:54:49.885Z,100632.85
2023-05-22T19:59:43.157Z,100632.58
2023-05-22T20:04:36.044Z,100633.48
2023-05-22T20:09:28.985Z,100627.92
2023-05-22T20:14:22.057Z,100634.05
2023-05-22T20:19:15.524Z,100630.22
2023-05-22T20:24:12.618Z,100625.48
2023-05-22T20:29:05.527Z,100620.27
2023-05-22T20:33:59.326Z,100627.23
2023-05-22T20:38:52.201Z,100627.23
2023-05-22T20:43:46.510Z,100623.38
2023-05-22T20:48:40.660Z,100624.60
2023-05-22T20:53:33.560Z,100621.23
2023-05-22T20:58:27.507Z,100622.05
2023-05-22T21:03:20.514Z,100618.52
2023-05-22T21:08:13.414Z,100623.65
2023-05-22T21:13:06.719Z,100621.52
2023-05-22T21:17:59.769Z,100619.39
2023-05-22T21:22:52.698Z,100615.50
2023-05-22T21:27:47.457Z,100608.15
2023-05-22T21:32:41.243Z,100609.48
2023-05-22T21:37:34.170Z,100605.25
2023-05-22T21:42:34.782Z,100604.35
2023-05-22T21:47:37.815Z,100603.99
2023-05-22T21:52:30.662Z,100606.20
2023-05-22T21:57:26.394Z,100605.97
2023-05-22T22:02:19.574Z,100606.94
2023-05-22T22:07:13.144Z,100609.16
2023-05-22T22:12:06.276Z,100608.39
2023-05-22T22:17:00.910Z,100604.16
2023-05-22T22:21:53.936Z,100602.01
2023-05-22T22:26:48.049Z,100597.44
2023-05-22T22:31:41.135Z,100603.77
2023-05-22T22:36:35.692Z,100602.27
2023-05-22T22:41:29.248Z,100594.95
2023-05-22T22:46:22.191Z,100594.35
2023-05-22T22:51:17.126Z,100593.39
2023-05-22T22:56:09.992Z,100600.20
2023-05-22T23:01:02.930Z,100600.98
2023-05-22T23:05:55.796Z,100597.77
2023-05-22T23:10:48.676Z,100588.42
2023-05-22T23:15:41.926Z,100584.13
2023-05-22T23:20:35.152Z,100578.50
2023-05-22T23:25:27.992Z,100569.95
2023-05-22T23:30:21.538Z,100566.88
2023-05-22T23:35:14.387Z,100561.55
2023-05-22T23:40:08.913Z,100559.20
2023-05-22T23:45:01.800Z,100560.01
2023-05-22T23:49:56.722Z,100556.30
2023-05-22T23:54:49.625Z,100551.20
2023-05-22T23:59:43.797Z,100550.98
